createdAt,value
2022-08-09T00:01:16.587Z,48.66
2022-08-09T00:04:08.481Z,48.80
2022-08-09T00:06:37.805Z,48.92
2022-08-09T00:09:07.900Z,49.12
2022-08-09T00:11:58.611Z,49.23
2022-08-09T00:14:37.793Z,49.28
2022-08-09T00:17:09.568Z,49.46
2022-08-09T00:20:00.227Z,49.38
2022-08-09T00:22:35.017Z,49.45
2022-08-09T00:25:12.704Z,49.50
2022-08-09T00:27:47.922Z,49.64
2022-08-09T00:30:26.189Z,49.73
2022-08-09T00:32:56.688Z,49.80
2022-08-09T00:35:43.269Z,49.76
2022-08-09T00:38:15.278Z,49.91
2022-08-09T00:40:52.476Z,49.99
2022-08-09T00:44:10.202Z,50.09
2022-08-09T00:47:33.207Z,50.05
2022-08-09T00:50:14.310Z,50.08
2022-08-09T00:52:47.884Z,50.24
2022-08-09T00:56:03.000Z,50.28
2022-08-09T00:58:36.066Z,50.34
2022-08-09T01:01:32.306Z,50.39
2022-08-09T01:04:09.299Z,50.32
2022-08-09T01:07:19.496Z,50.23
2022-08-09T01:10:51.908Z,50.14
2022-08-09T01:13:59.258Z,50.18
2022-08-09T01:16:47.260Z,50.25
2022-08-09T01:19:51.765Z,50.49
2022-08-09T01:22:45.402Z,50.61
2022-08-09T01:25:37.372Z,50.82
2022-08-09T01:28:14.150Z,50.92
2022-08-09T01:30:51.921Z,50.98
2022-08-09T01:33:27.985Z,51.07
2022-08-09T01:36:15.666Z,51.19
2022-08-09T01:38:49.104Z,51.20
2022-08-09T01:41:31.730Z,51.09
2022-08-09T01:44:06.488Z,51.20
2022-08-09T01:47:31.403Z,51.36
2022-08-09T01:50:06.749Z,51.30
2022-08-09T01:52:41.451Z,51.47
2022-08-09T01:55:14.655Z,51.62
2022-08-09T01:57:52.868Z,51.70
2022-08-09T02:00:35.533Z,51.76
2022-08-09T02:03:11.344Z,51.87
2022-08-09T02:06:04.237Z,51.89
2022-08-09T02:08:58.035Z,51.97
2022-08-09T02:11:42.479Z,51.95
2022-08-09T02:14:26.567Z,51.90
2022-08-09T02:17:59.261Z,51.86
2022-08-09T02:20:09.345Z,51.87
2022-08-09T02:22:46.653Z,51.88
2022-08-09T02:25:22.487Z,51.93
2022-08-09T02:28:33.121Z,52.02
2022-08-09T02:31:06.683Z,52.05
2022-08-09T02:34:07.492Z,52.06
2022-08-09T02:36:37.768Z,52.18
2022-08-09T02:39:20.070Z,52.28
2022-08-09T02:42:19.028Z,52.35
2022-08-09T02:45:09.568Z,52.50
2022-08-09T02:47:57.351Z,52.48
2022-08-09T02:50:37.713Z,52.51
2022-08-09T02:53:26.197Z,52.53
2022-08-09T02:56:01.955Z,52.57
2022-08-09T02:58:37.219Z,52.58
2022-08-09T03:01:15.153Z,52.65
2022-08-09T03:04:17.873Z,52.57
2022-08-09T03:06:46.765Z,52.70
2022-08-09T03:09:20.972Z,52.67
2022-08-09T03:12:08.413Z,52.90
2022-08-09T03:14:45.785Z,53.03
2022-08-09T03:17:26.735Z,53.15
2022-08-09T03:20:05.204Z,53.19
2022-08-09T03:22:56.931Z,53.14
2022-08-09T03:25:58.093Z,53.32
2022-08-09T03:28:25.152Z,53.10
2022-08-09T03:30:57.070Z,53.17
2022-08-09T03:33:54.696Z,53.02
2022-08-09T03:36:21.009Z,53.05
2022-08-09T03:39:01.054Z,53.08
2022-08-09T03:41:45.854Z,53.04
2022-08-09T03:44:19.848Z,53.19
2022-08-09T03:46:58.968Z,53.28
2022-08-09T03:49:36.944Z,53.47
2022-08-09T03:52:13.108Z,53.57
2022-08-09T03:54:45.909Z,53.68
2022-08-09T03:57:23.197Z,53.80
2022-08-09T04:00:01.256Z,53.85
2022-08-09T04:02:45.673Z,53.72
2022-08-09T04:05:27.336Z,53.69
2022-08-09T04:07:58.953Z,53.69
2022-08-09T04:10:30.569Z,53.76
2022-08-09T04:13:04.087Z,53.71
2022-08-09T04:16:17.965Z,53.85
2022-08-09T04:18:34.104Z,53.85
2022-08-09T04:21:07.182Z,53.94
2022-08-09T04:23:38.843Z,54.11
2022-08-09T04:26:13.384Z,54.11
2022-08-09T04:28:47.471Z,54.16
2022-08-09T04:31:23.376Z,54.20
2022-08-09T04:33:59.534Z,54.24
2022-08-09T04:36:34.072Z,54.26
2022-08-09T04:39:10.662Z,54.36
2022-08-09T04:41:45.639Z,54.42
2022-08-09T04:44:20.606Z,54.52
2022-08-09T04:46:59.387Z,54.52
2022-08-09T04:49:54.259Z,54.57
2022-08-09T04:52:28.080Z,54.72
2022-08-09T04:55:00.416Z,54.80
2022-08-09T04:57:54.394Z,54.97
2022-08-09T05:00:31.881Z,55.07
2022-08-09T05:03:30.254Z,55.08
2022-08-09T05:06:06.842Z,55.20
2022-08-09T05:08:43.720Z,55.24
2022-08-09T05:11:18.085Z,55.28
2022-08-09T05:13:51.898Z,55.16
2022-08-09T05:16:31.523Z,55.17
2022-08-09T05:19:02.767Z,54.95
2022-08-09T05:21:36.640Z,54.93
2022-08-09T05:24:18.347Z,54.74
2022-08-09T05:26:50.814Z,54.67
2022-08-09T05:29:22.149Z,54.64
2022-08-09T05:32:00.607Z,54.63
2022-08-09T05:34:33.199Z,54.62
2022-08-09T05:37:11.541Z,54.60
2022-08-09T05:39:44.959Z,54.59
2022-08-09T05:42:21.866Z,54.61
2022-08-09T05:45:55.732Z,54.62
2022-08-09T05:48:32.883Z,54.40
2022-08-09T05:51:16.866Z,54.31
2022-08-09T05:53:57.641Z,54.26
2022-08-09T05:56:33.086Z,54.31
2022-08-09T05:59:04.421Z,54.21
2022-08-09T06:01:42.767Z,53.95
2022-08-09T06:04:23.305Z,53.95
2022-08-09T06:06:56.913Z,54.07
2022-08-09T06:09:54.102Z,53.97
2022-08-09T06:12:22.131Z,53.92
2022-08-09T06:15:01.302Z,53.91
2022-08-09T06:17:39.726Z,54.08
2022-08-09T06:20:12.854Z,54.07
2022-08-09T06:22:50.352Z,53.93
2022-08-09T06:25:23.457Z,53.84
2022-08-09T06:27:53.142Z,54.09
2022-08-09T06:30:23.054Z,53.95
2022-08-09T06:33:13.179Z,53.92
2022-08-09T06:35:57.095Z,53.88
2022-08-09T06:38:32.219Z,53.95
2022-08-09T06:41:18.250Z,53.79
2022-08-09T06:43:50.618Z,53.77
2022-08-09T06:46:40.485Z,53.89
2022-08-09T06:49:10.996Z,53.83
2022-08-09T06:51:42.325Z,53.83
2022-08-09T06:54:14.912Z,53.85
2022-08-09T06:56:47.116Z,53.79
2022-08-09T07:00:52.109Z,53.74
2022-08-09T07:02:08.300Z,53.64
2022-08-09T07:04:41.831Z,53.59
2022-08-09T07:08:00.201Z,53.71
2022-08-09T07:10:29.693Z,53.72
2022-08-09T07:22:36.318Z,53.50
2022-08-09T07:25:32.831Z,53.59
2022-08-09T07:28:19.314Z,53.59
2022-08-09T07:31:27.943Z,53.69
2022-08-09T07:34:06.126Z,53.66
2022-08-09T07:36:47.388Z,53.64
2022-08-09T07:42:55.707Z,53.56
2022-08-09T07:46:31.113Z,53.24
2022-08-09T07:49:01.761Z,53.14
2022-08-09T07:56:36.891Z,53.13
2022-08-09T07:59:14.161Z,53.04
2022-08-09T08:01:58.072Z,53.07
2022-08-09T08:04:31.723Z,52.78
2022-08-09T08:07:15.468Z,52.84
2022-08-09T08:10:08.765Z,52.37
2022-08-09T08:12:45.418Z,52.20
2022-08-09T08:15:23.239Z,52.05
2022-08-09T08:17:58.146Z,51.65
2022-08-09T08:20:32.646Z,51.60
2022-08-09T08:23:16.801Z,51.35
2022-08-09T08:26:06.497Z,51.25
2022-08-09T08:28:43.997Z,51.32
2022-08-09T08:31:16.101Z,51.22
2022-08-09T08:33:52.269Z,51.40
2022-08-09T08:36:34.892Z,50.85
2022-08-09T08:40:53.561Z,50.49
2022-08-09T08:43:24.298Z,50.72
2022-08-09T08:46:32.033Z,50.46
2022-08-09T08:49:04.528Z,50.35
2022-08-09T08:51:38.790Z,50.56
2022-08-09T08:54:20.654Z,50.45
2022-08-09T08:57:11.344Z,50.30
2022-08-09T08:59:46.426Z,50.19
2022-08-09T09:02:31.481Z,50.13
2022-08-09T09:05:09.864Z,49.75
2022-08-09T09:07:45.119Z,49.85
2022-08-09T09:10:17.830Z,49.62
2022-08-09T09:12:51.603Z,49.52
2022-08-09T09:15:28.337Z,49.55
2022-08-09T09:17:59.276Z,49.39
2022-08-09T09:20:36.949Z,49.21
2022-08-09T09:23:07.442Z,49.25
2022-08-09T09:26:01.879Z,49.02
2022-08-09T09:28:39.073Z,49.06
2022-08-09T09:32:05.954Z,48.90
2022-08-09T09:34:24.106Z,48.56
2022-08-09T09:37:12.956Z,48.70
2022-08-09T09:39:57.007Z,48.74
2022-08-09T09:42:31.181Z,48.58
2022-08-09T09:46:39.078Z,48.43
2022-08-09T09:48:41.053Z,48.11
2022-08-09T09:51:26.161Z,48.03
2022-08-09T09:54:20.284Z,47.97
2022-08-09T09:58:03.664Z,47.89
2022-08-09T09:59:47.176Z,47.54
2022-08-09T10:02:30.297Z,47.09
2022-08-09T10:05:11.896Z,47.03
2022-08-09T10:08:10.892Z,46.69
2022-08-09T10:10:40.654Z,46.52
2022-08-09T10:13:24.886Z,46.30
2022-08-09T10:16:54.727Z,46.27
2022-08-09T10:18:59.899Z,45.76
2022-08-09T10:21:37.093Z,45.79
2022-08-09T10:24:10.073Z,45.15
2022-08-09T10:26:50.026Z,44.67
2022-08-09T10:30:22.160Z,44.10
2022-08-09T10:35:13.221Z,43.96
2022-08-09T10:37:44.694Z,44.14
2022-08-09T10:40:34.704Z,43.33
2022-08-09T11:24:00.339Z,38.34
2022-08-09T11:26:47.211Z,38.24
2022-08-09T11:30:05.624Z,38.32
2022-08-09T11:33:01.808Z,37.56
2022-08-09T11:35:50.255Z,37.39
2022-08-09T11:38:32.349Z,37.33
2022-08-09T11:41:38.180Z,37.48
2022-08-09T11:44:13.513Z,37.15
2022-08-09T11:47:35.400Z,36.94
2022-08-09T11:50:55.557Z,37.16
2022-08-09T11:53:21.146Z,36.52
2022-08-09T11:56:02.334Z,36.33
2022-08-09T11:59:01.570Z,35.99
2022-08-09T12:02:00.913Z,35.95
2022-08-09T12:04:32.435Z,35.99
2022-08-09T12:07:09.783Z,36.08
2022-08-09T12:09:40.658Z,36.05
2022-08-09T12:12:28.800Z,34.95
2022-08-09T12:15:48.439Z,34.95
2022-08-09T12:18:29.889Z,35.00
2022-08-09T12:21:03.139Z,34.62
2022-08-09T12:23:56.128Z,34.34
2022-08-09T12:26:26.593Z,35.02
2022-08-09T12:29:29.445Z,34.78
2022-08-09T12:32:02.584Z,34.42
2022-08-09T12:34:39.883Z,34.49
2022-08-09T12:37:23.741Z,34.39
2022-08-09T12:40:12.182Z,34.25
2022-08-09T12:43:05.395Z,34.08
2022-08-09T12:46:32.565Z,33.50
2022-08-09T12:52:44.274Z,33.05
2022-08-09T12:59:57.775Z,32.62
2022-08-09T13:50:54.548Z,30.95
2022-08-09T13:53:57.438Z,30.80
2022-08-09T13:56:50.133Z,30.72
2022-08-09T14:00:05.731Z,30.86
2022-08-09T14:03:17.075Z,31.48
2022-08-09T14:06:02.657Z,30.99
2022-08-09T14:08:37.311Z,30.82
2022-08-09T14:11:16.169Z,31.03
2022-08-09T14:14:24.006Z,31.30
2022-08-09T14:16:42.335Z,31.39
2022-08-09T14:19:13.139Z,31.14
2022-08-09T14:21:43.588Z,31.16
2022-08-09T14:24:35.898Z,31.14
2022-08-09T14:27:19.997Z,31.16
2022-08-09T14:30:37.434Z,30.92
2022-08-09T14:32:47.183Z,30.99
2022-08-09T14:35:52.629Z,30.80
2022-08-09T14:38:33.355Z,30.55
2022-08-09T14:41:34.797Z,30.30
2022-08-09T14:43:59.289Z,30.07
2022-08-09T14:46:56.031Z,30.53
2022-08-09T14:50:17.401Z,30.61
2022-08-09T14:53:14.049Z,30.37
2022-08-09T14:55:50.508Z,30.50
2022-08-09T14:58:24.265Z,30.61
2022-08-09T15:00:57.771Z,30.82
2022-08-09T15:03:30.624Z,30.92
2022-08-09T15:06:04.215Z,30.78
2022-08-09T15:08:35.221Z,31.17
2022-08-09T15:11:07.415Z,31.06
2022-08-09T15:13:48.581Z,31.37
2022-08-09T15:16:31.447Z,31.49
2022-08-09T15:19:15.916Z,31.56
2022-08-09T15:22:06.740Z,31.77
2022-08-09T15:24:59.533Z,31.92
2022-08-09T15:28:35.536Z,31.90
2022-08-09T15:31:40.995Z,31.73
2022-08-09T15:41:33.597Z,32.21
2022-08-09T15:48:29.021Z,32.59
2022-08-09T15:51:30.162Z,32.73
2022-08-09T16:20:16.323Z,33.91
2022-08-09T16:22:56.060Z,34.33
2022-08-09T16:25:49.885Z,34.21
2022-08-09T16:28:25.512Z,34.36
2022-08-09T16:31:15.848Z,34.49
2022-08-09T16:33:47.060Z,34.75
2022-08-09T16:36:40.864Z,34.67
2022-08-09T16:39:39.996Z,34.98
2022-08-09T16:42:57.055Z,35.12
2022-08-09T16:45:53.483Z,35.16
2022-08-09T16:48:43.283Z,35.22
2022-08-09T16:51:17.989Z,35.39
2022-08-09T16:54:16.465Z,35.47
2022-08-09T16:56:53.169Z,35.30
2022-08-09T16:59:22.599Z,35.43
2022-08-09T17:01:54.960Z,35.49
2022-08-09T17:04:29.765Z,35.42
2022-08-09T17:08:46.924Z,35.34
2022-08-09T17:09:50.694Z,35.56
2022-08-09T17:12:21.502Z,35.40
2022-08-09T17:14:58.357Z,35.63
2022-08-09T17:17:30.794Z,35.41
2022-08-09T17:20:32.428Z,35.70
2022-08-09T17:23:14.751Z,35.61
2022-08-09T17:25:52.777Z,35.77
2022-08-09T17:28:25.125Z,35.86
2022-08-09T17:30:57.215Z,35.97
2022-08-09T17:33:26.318Z,35.94
2022-08-09T17:36:05.776Z,35.93
2022-08-09T17:38:39.537Z,35.96
2022-08-09T17:41:10.561Z,36.08
2022-08-09T17:43:47.118Z,36.28
2022-08-09T17:46:34.240Z,36.09
2022-08-09T17:49:05.467Z,36.26
2022-08-09T17:51:40.266Z,36.25
2022-08-09T17:54:13.103Z,36.32
2022-08-09T17:56:47.015Z,36.37
2022-08-09T17:59:20.181Z,36.61
2022-08-09T18:02:07.391Z,36.64
2022-08-09T18:04:52.011Z,36.82
2022-08-09T18:07:30.320Z,36.78
2022-08-09T18:10:12.078Z,36.79
2022-08-09T18:13:38.924Z,37.03
2022-08-09T18:16:08.086Z,37.19
2022-08-09T18:18:43.347Z,37.16
2022-08-09T18:21:23.512Z,37.30
2022-08-09T18:24:09.975Z,37.41
2022-08-09T18:26:46.290Z,37.47
2022-08-09T18:30:41.746Z,37.60
2022-08-09T18:32:09.566Z,37.67
2022-08-09T18:34:40.036Z,37.70
2022-08-09T18:37:47.175Z,37.84
2022-08-09T18:40:04.297Z,37.98
2022-08-09T18:42:38.001Z,38.00
2022-08-09T18:46:47.909Z,38.09
2022-08-09T18:48:34.069Z,38.34
2022-08-09T18:51:05.904Z,38.60
2022-08-09T18:53:59.714Z,38.84
2022-08-09T18:56:29.728Z,39.07
2022-08-09T18:59:01.259Z,39.14
2022-08-09T19:01:32.187Z,39.35
2022-08-09T19:04:17.867Z,39.32
2022-08-09T19:07:06.012Z,39.52
2022-08-09T19:10:13.927Z,39.64
2022-08-09T19:12:32.174Z,39.89
2022-08-09T19:15:08.421Z,39.99
2022-08-09T19:17:54.668Z,40.10
2022-08-09T19:20:34.068Z,40.30
2022-08-09T19:23:06.617Z,40.33
2022-08-09T19:26:01.520Z,40.57
2022-08-09T19:28:30.002Z,40.68
2022-08-09T19:31:01.154Z,40.78
2022-08-09T19:33:34.962Z,40.92
2022-08-09T19:36:07.164Z,40.99
2022-08-09T19:38:42.947Z,41.16
2022-08-09T19:41:33.037Z,41.38
2022-08-09T19:44:06.541Z,41.52
2022-08-09T19:47:29.000Z,41.63
2022-08-09T19:50:08.044Z,41.88
2022-08-09T19:52:54.083Z,41.92
2022-08-09T19:55:30.507Z,42.02
2022-08-09T19:58:16.138Z,42.06
2022-08-09T20:00:48.184Z,42.17
2022-08-09T20:04:10.665Z,42.26
2022-08-09T20:06:10.529Z,42.34
2022-08-09T20:08:56.702Z,42.41
2022-08-09T20:11:42.925Z,42.49
2022-08-09T20:14:17.173Z,42.58
2022-08-09T20:16:53.279Z,42.62
2022-08-09T20:19:47.567Z,42.77
2022-08-09T20:22:18.475Z,42.96
2022-08-09T20:24:53.521Z,43.03
2022-08-09T20:27:24.885Z,43.10
2022-08-09T20:30:02.642Z,43.20
2022-08-09T20:32:34.115Z,43.30
2022-08-09T20:35:04.054Z,43.40
2022-08-09T20:38:21.018Z,43.58
2022-08-09T20:40:33.418Z,43.58
2022-08-09T20:43:19.030Z,43.76
2022-08-09T20:50:47.585Z,44.18
2022-08-09T20:53:35.534Z,44.36
2022-08-09T20:56:21.679Z,44.61
2022-08-09T20:59:24.883Z,44.74
2022-08-09T21:03:10.169Z,44.78
2022-08-09T21:05:59.707Z,44.83
2022-08-09T21:08:36.515Z,44.96
2022-08-09T21:14:00.498Z,45.11
2022-08-09T21:16:35.152Z,45.21
2022-08-09T21:20:19.097Z,45.24
2022-08-09T21:22:05.141Z,45.38
2022-08-09T21:25:14.158Z,45.58
2022-08-09T21:27:52.535Z,45.62
2022-08-09T21:30:40.357Z,45.71
2022-08-09T21:33:14.902Z,45.81
2022-08-09T21:35:54.784Z,45.92
2022-08-09T21:38:31.637Z,46.00
2022-08-09T21:41:08.400Z,46.11
2022-08-09T21:43:56.683Z,46.22
2022-08-09T21:46:37.168Z,46.41
2022-08-09T21:49:07.329Z,46.56
2022-08-09T21:51:43.919Z,46.77
2022-08-09T21:54:21.586Z,46.98
2022-08-09T21:56:54.379Z,47.08
2022-08-09T21:59:29.252Z,47.09
2022-08-09T22:02:36.481Z,47.09
2022-08-09T22:05:16.846Z,47.37
2022-08-09T22:07:57.705Z,47.70
2022-08-09T22:10:33.279Z,47.62
2022-08-09T22:13:07.655Z,47.93
2022-08-09T22:15:42.222Z,48.09
2022-08-09T22:18:14.182Z,48.18
2022-08-09T22:20:47.378Z,48.39
2022-08-09T22:23:25.413Z,48.60
2022-08-09T22:26:07.260Z,48.45
2022-08-09T22:28:47.254Z,48.23
2022-08-09T22:31:27.697Z,48.05
2022-08-09T22:34:02.383Z,48.14
2022-08-09T22:36:37.360Z,48.22
2022-08-09T22:39:46.845Z,48.48
2022-08-09T22:42:20.734Z,48.68
2022-08-09T22:45:00.030Z,48.79
2022-08-09T22:48:11.474Z,48.86
2022-08-09T22:50:36.124Z,49.22
2022-08-09T22:53:09.281Z,49.20
2022-08-09T22:56:30.806Z,49.28
2022-08-09T22:58:37.216Z,49.29
2022-08-09T23:01:12.344Z,49.44
2022-08-09T23:04:03.782Z,49.38
2022-08-09T23:06:53.807Z,49.67
2022-08-09T23:09:36.101Z,49.77
2022-08-09T23:12:12.574Z,49.75
2022-08-09T23:14:45.611Z,49.88
2022-08-09T23:17:22.401Z,50.09
2022-08-09T23:20:00.643Z,50.32
2022-08-09T23:22:51.258Z,50.36
2022-08-09T23:25:24.081Z,50.58
2022-08-09T23:28:15.429Z,50.72
2022-08-09T23:30:52.098Z,50.74
2022-08-09T23:33:35.338Z,50.84
2022-08-09T23:36:22.276Z,50.97
2022-08-09T23:39:02.197Z,50.87
2022-08-09T23:41:31.576Z,51.12
2022-08-09T23:44:05.862Z,51.14
2022-08-09T23:46:43.356Z,51.14
2022-08-09T23:49:14.089Z,51.39
2022-08-09T23:51:54.691Z,51.58
2022-08-09T23:54:27.562Z,51.78
2022-08-09T23:57:01.104Z,51.99
2022-08-09T23:59:51.775Z,52.11
